Time;durP1;ratioP1;P1;durP2;ratioP2;P2;SDS_P1;SDS_P2;PMS_P1;PMS_P2;Temp;Humidity;BMP_temperature;BMP_pressure;BME280_temperature;BME280_humidity;BME280_pressure;Samples;Min_cycle;Max_cycle;Signal;HPM_P1;HPM_P2
2021/08/07 00:00:12;;;;;;;4.17;2.97;;;;;;;;;;5093618;28;20473;-74
2021/08/07 00:02:39;;;;;;;3.43;3.23;;;;;;;;;;5093880;28;20443;-74
2021/08/07 00:05:07;;;;;;;4.03;3.40;;;;;;;;;;5093737;28;20547;-73
2021/08/07 00:07:34;;;;;;;3.10;2.80;;;;;;;;;;5094212;28;20481;-73
2021/08/07 00:10:02;;;;;;;3.60;3.13;;;;;;;;;;5093287;28;20450;-73
2021/08/07 00:12:29;;;;;;;3.70;3.40;;;;;;;;;;5093590;28;20452;-73
2021/08/07 00:14:57;;;;;;;3.23;3.00;;;;;;;;;;5093221;28;20440;-74
2021/08/07 00:17:25;;;;;;;3.60;3.30;;;;;;;;;;5093557;28;20444;-74
2021/08/07 00:19:52;;;;;;;4.40;2.60;;;;;;;;;;5093137;28;20472;-73
2021/08/07 00:22:19;;;;;;;3.03;2.70;;;;;;;;;;5093484;28;20493;-74
2021/08/07 00:24:47;;;;;;;3.57;2.60;;;;;;;;;;5093635;28;20571;-74
2021/08/07 00:27:15;;;;;;;4.03;2.87;;;;;;;;;;5093442;28;20452;-74
2021/08/07 00:29:42;;;;;;;3.30;3.00;;;;;;;;;;5094048;28;20439;-73
2021/08/07 00:32:10;;;;;;;3.07;2.80;;;;;;;;;;5093836;28;20458;-74
2021/08/07 00:34:37;;;;;;;2.90;2.70;;;;;;;;;;5093103;28;20448;-73
2021/08/07 00:37:06;;;;;;;13.23;3.40;;;;;;;;;;5093358;28;20493;-74
2021/08/07 00:39:33;;;;;;;4.03;2.80;;;;;;;;;;5093263;28;20796;-73
2021/08/07 00:42:01;;;;;;;3.27;2.70;;;;;;;;;;5093295;28;20805;-74
2021/08/07 00:44:28;;;;;;;7.03;2.70;;;;;;;;;;5092953;28;20437;-73
2021/08/07 00:46:55;;;;;;;4.67;2.90;;;;;;;;;;5092949;28;20452;-74
2021/08/07 00:49:24;;;;;;;2.80;2.60;;;;;;;;;;5093247;28;20527;-74
2021/08/07 00:51:52;;;;;;;6.30;2.67;;;;;;;;;;5093122;28;20437;-73
2021/08/07 00:54:19;;;;;;;3.13;2.87;;;;;;;;;;5093599;28;20952;-73
2021/08/07 00:56:46;;;;;;;6.43;2.90;;;;;;;;;;5096778;28;20948;-73
2021/08/07 00:59:13;;;;;;;3.07;2.77;;;;;;;;;;5097080;28;20446;-73
2021/08/07 01:01:43;;;;;;;4.80;2.80;;;;;;;;;;5096579;28;20511;-73
2021/08/07 01:04:13;;;;;;;6.40;3.07;;;;;;;;;;5096619;28;20440;-73
2021/08/07 01:06:47;;;;;;;3.17;2.87;;;;;;;;;;5096925;28;20439;-73
2021/08/07 01:09:21;;;;;;;3.10;2.60;;;;;;;;;;5096989;28;20445;-72
2021/08/07 01:11:52;;;;;;;3.90;2.93;;;;;;;;;;5097137;28;20440;-73
2021/08/07 01:14:22;;;;;;;4.13;2.70;;;;;;;;;;5097421;28;20506;-73
2021/08/07 01:16:50;;;;;;;3.27;2.97;;;;;;;;;;5096872;28;20435;-73
2021/08/07 01:19:19;;;;;;;4.80;2.50;;;;;;;;;;5096626;28;20446;-73
2021/08/07 01:21:57;;;;;;;3.30;3.00;;;;;;;;;;5096724;28;20521;-74
2021/08/07 01:24:26;;;;;;;2.90;2.70;;;;;;;;;;5096412;28;20479;-73
2021/08/07 01:26:56;;;;;;;2.70;2.50;;;;;;;;;;5097033;28;20443;-73
2021/08/07 01:29:25;;;;;;;4.03;2.90;;;;;;;;;;5097285;28;20443;-74
2021/08/07 01:31:53;;;;;;;3.97;3.03;;;;;;;;;;5096668;28;20446;-74
2021/08/07 01:34:21;;;;;;;3.37;2.63;;;;;;;;;;5096069;28;20948;-73
2021/08/07 01:36:48;;;;;;;2.80;2.60;;;;;;;;;;5096335;28;20530;-73
2021/08/07 01:39:15;;;;;;;2.90;2.70;;;;;;;;;;5096282;28;20455;-74
2021/08/07 01:41:42;;;;;;;3.20;2.57;;;;;;;;;;5095825;28;20551;-74
2021/08/07 01:44:10;;;;;;;4.40;2.73;;;;;;;;;;5096619;28;20441;-74
2021/08/07 01:46:41;;;;;;;2.73;2.53;;;;;;;;;;5096430;28;20817;-74
2021/08/07 01:49:12;;;;;;;2.70;2.50;;;;;;;;;;5096964;28;20426;-74
2021/08/07 01:51:41;;;;;;;5.10;2.90;;;;;;;;;;5096279;28;20938;-74
2021/08/07 01:54:09;;;;;;;3.43;3.13;;;;;;;;;;5095810;28;20449;-75
2021/08/07 01:56:42;;;;;;;3.10;2.90;;;;;;;;;;5096146;28;20438;-74
2021/08/07 01:59:12;;;;;;;5.23;2.80;;;;;;;;;;5096340;28;20428;-74
2021/08/07 02:01:40;;;;;;;3.90;2.40;;;;;;;;;;5096560;28;20489;-74
2021/08/07 02:04:08;;;;;;;3.93;3.07;;;;;;;;;;5095516;28;20442;-74
2021/08/07 02:06:36;;;;;;;5.77;2.43;;;;;;;;;;5095600;28;20531;-74
2021/08/07 02:09:03;;;;;;;3.30;3.00;;;;;;;;;;5096141;28;20436;-74
2021/08/07 02:11:31;;;;;;;4.67;2.67;;;;;;;;;;5096239;28;20442;-73
2021/08/07 02:13:59;;;;;;;4.80;3.80;;;;;;;;;;5096115;28;20451;-74
2021/08/07 02:16:26;;;;;;;4.00;3.00;;;;;;;;;;5095641;28;20538;-74
2021/08/07 02:18:56;;;;;;;3.33;3.03;;;;;;;;;;5095568;28;20801;-74
2021/08/07 02:21:23;;;;;;;3.20;3.00;;;;;;;;;;5095390;28;20562;-74
2021/08/07 02:23:51;;;;;;;5.53;3.27;;;;;;;;;;5095403;28;20468;-74
2021/08/07 02:26:18;;;;;;;3.10;2.83;;;;;;;;;;5095110;28;20439;-74
2021/08/07 02:28:46;;;;;;;3.53;3.33;;;;;;;;;;5095358;28;20439;-74
2021/08/07 02:31:13;;;;;;;3.47;3.17;;;;;;;;;;5094978;28;20953;-74
2021/08/07 02:33:40;;;;;;;3.43;3.13;;;;;;;;;;5095241;28;20442;-74
2021/08/07 02:36:10;;;;;;;8.60;3.07;;;;;;;;;;5095156;28;20440;-74
2021/08/07 02:38:38;;;;;;;5.07;3.60;;;;;;;;;;5095439;28;20472;-74
2021/08/07 02:41:05;;;;;;;3.40;3.10;;;;;;;;;;5094631;28;20475;-74
2021/08/07 02:43:33;;;;;;;3.77;3.47;;;;;;;;;;5095321;28;20462;-74
2021/08/07 02:46:01;;;;;;;3.37;3.07;;;;;;;;;;5094794;28;20513;-74
2021/08/07 02:48:28;;;;;;;4.47;3.50;;;;;;;;;;5094913;28;20442;-74
2021/08/07 02:50:56;;;;;;;5.87;3.60;;;;;;;;;;5094872;28;20446;-74
2021/08/07 02:53:25;;;;;;;4.90;4.13;;;;;;;;;;5095055;28;20789;-74
2021/08/07 02:55:52;;;;;;;4.53;3.80;;;;;;;;;;5094777;28;20440;-73
2021/08/07 02:58:20;;;;;;;5.40;4.60;;;;;;;;;;5094848;28;20447;-74
2021/08/07 03:00:47;;;;;;;7.40;4.53;;;;;;;;;;5094649;28;20486;-74
2021/08/07 03:03:14;;;;;;;5.23;4.73;;;;;;;;;;5094468;28;20985;-74
2021/08/07 03:05:42;;;;;;;7.40;4.50;;;;;;;;;;5094875;28;20439;-74
2021/08/07 03:08:11;;;;;;;6.23;4.53;;;;;;;;;;5094547;28;20477;-74
2021/08/07 03:10:40;;;;;;;5.70;5.20;;;;;;;;;;5094198;28;20443;-74
2021/08/07 03:13:08;;;;;;;6.30;5.70;;;;;;;;;;5094804;28;20439;-74
2021/08/07 03:15:36;;;;;;;7.80;4.90;;;;;;;;;;5094384;28;20455;-74
2021/08/07 03:18:03;;;;;;;6.20;5.60;;;;;;;;;;5094129;28;20475;-73
2021/08/07 03:20:33;;;;;;;6.20;5.60;;;;;;;;;;5094378;28;20442;-73
2021/08/07 03:23:01;;;;;;;6.23;5.73;;;;;;;;;;5094955;28;20476;-74
2021/08/07 03:25:28;;;;;;;6.87;6.23;;;;;;;;;;5093892;28;20544;-73
2021/08/07 03:27:57;;;;;;;6.00;5.53;;;;;;;;;;5093922;28;20445;-73
2021/08/07 03:30:25;;;;;;;6.77;6.03;;;;;;;;;;5093802;28;20444;-74
2021/08/07 03:32:52;;;;;;;6.73;6.13;;;;;;;;;;5094160;28;20444;-73
2021/08/07 03:35:19;;;;;;;7.10;6.60;;;;;;;;;;5094063;28;20445;-73
2021/08/07 03:37:46;;;;;;;6.50;5.90;;;;;;;;;;5093942;28;20927;-73
2021/08/07 03:40:15;;;;;;;6.83;6.23;;;;;;;;;;5094015;28;20561;-73
2021/08/07 03:42:42;;;;;;;6.43;5.90;;;;;;;;;;5093909;28;20472;-73
2021/08/07 03:45:12;;;;;;;6.80;6.20;;;;;;;;;;5093923;28;20451;-73
2021/08/07 03:47:46;;;;;;;8.30;6.07;;;;;;;;;;5093855;28;20454;-73
2021/08/07 03:50:13;;;;;;;7.10;6.00;;;;;;;;;;5094058;28;20981;-73
2021/08/07 03:52:41;;;;;;;7.53;5.80;;;;;;;;;;5093784;28;20443;-73
2021/08/07 03:55:08;;;;;;;6.90;6.30;;;;;;;;;;5094093;28;20458;-74
2021/08/07 03:57:47;;;;;;;6.93;6.23;;;;;;;;;;5093780;28;20514;-74
2021/08/07 04:00:16;;;;;;;9.70;6.50;;;;;;;;;;5093712;28;20436;-73
2021/08/07 04:02:43;;;;;;;7.00;6.23;;;;;;;;;;5093436;28;20479;-74
2021/08/07 04:05:11;;;;;;;7.07;6.23;;;;;;;;;;5093302;28;20450;-73
2021/08/07 04:07:38;;;;;;;7.00;6.30;;;;;;;;;;5093593;28;20443;-73
2021/08/07 04:10:06;;;;;;;5.87;5.37;;;;;;;;;;5093611;28;20442;-73
2021/08/07 04:12:33;;;;;;;6.40;5.90;;;;;;;;;;5093225;28;20448;-76
2021/08/07 04:15:00;;;;;;;8.90;5.70;;;;;;;;;;5093513;28;21037;-76
2021/08/07 04:17:29;;;;;;;6.93;6.23;;;;;;;;;;5093513;28;20797;-76
2021/08/07 04:19:56;;;;;;;6.70;6.20;;;;;;;;;;5094335;28;20440;-75
2021/08/07 04:22:23;;;;;;;5.83;5.23;;;;;;;;;;5093672;28;20474;-75
2021/08/07 04:24:50;;;;;;;6.20;5.70;;;;;;;;;;5093650;28;20484;-79
2021/08/07 04:27:20;;;;;;;10.93;5.70;;;;;;;;;;5094132;28;20446;-75
2021/08/07 04:29:47;;;;;;;6.47;5.20;;;;;;;;;;5095384;28;20481;-87
2021/08/07 04:32:14;;;;;;;9.07;5.30;;;;;;;;;;5100996;28;20427;-77
2021/08/07 04:34:43;;;;;;;7.90;5.40;;;;;;;;;;5098049;28;20436;-77
2021/08/07 04:37:10;;;;;;;8.93;4.70;;;;;;;;;;5097263;28;20785;-76
2021/08/07 04:39:37;;;;;;;7.93;4.50;;;;;;;;;;5102695;28;20470;-76
2021/08/07 04:42:05;;;;;;;4.80;4.40;;;;;;;;;;5112851;28;20480;-76
2021/08/07 04:44:32;;;;;;;4.80;4.40;;;;;;;;;;5117233;28;20455;-76
2021/08/07 04:46:59;;;;;;;3.90;3.60;;;;;;;;;;5117591;28;20482;-76
2021/08/07 04:49:26;;;;;;;8.37;4.80;;;;;;;;;;5117612;28;20465;-76
2021/08/07 04:51:55;;;;;;;6.07;4.10;;;;;;;;;;5117435;28;20442;-76
2021/08/07 04:54:22;;;;;;;4.10;3.80;;;;;;;;;;5117578;28;20785;-76
2021/08/07 04:56:49;;;;;;;4.17;3.77;;;;;;;;;;5117702;28;20441;-75
2021/08/07 04:59:17;;;;;;;3.80;3.50;;;;;;;;;;5117714;28;20548;-76
2021/08/07 05:01:44;;;;;;;4.17;3.50;;;;;;;;;;5117492;28;20481;-75
2021/08/07 05:04:12;;;;;;;8.40;3.90;;;;;;;;;;5117556;28;20476;-76
2021/08/07 05:06:39;;;;;;;9.23;3.77;;;;;;;;;;5116977;28;20443;-75
2021/08/07 05:09:08;;;;;;;3.70;3.17;;;;;;;;;;5107233;28;20438;-76
2021/08/07 05:11:36;;;;;;;4.20;3.20;;;;;;;;;;5096409;28;20448;-77
2021/08/07 05:14:03;;;;;;;3.30;3.00;;;;;;;;;;5096482;28;20443;-76
2021/08/07 05:16:30;;;;;;;5.70;4.30;;;;;;;;;;5096665;28;20456;-76
2021/08/07 05:18:57;;;;;;;5.17;3.40;;;;;;;;;;5096658;28;20867;-76
2021/08/07 05:21:25;;;;;;;3.80;3.50;;;;;;;;;;5096594;28;20488;-76
2021/08/07 05:23:52;;;;;;;3.70;3.33;;;;;;;;;;5096520;28;20475;-76
2021/08/07 05:26:20;;;;;;;3.70;3.40;;;;;;;;;;5096532;28;20484;-76
2021/08/07 05:28:47;;;;;;;6.27;3.60;;;;;;;;;;5096204;28;20438;-76
2021/08/07 05:31:15;;;;;;;4.07;3.77;;;;;;;;;;5096510;28;20435;-76
2021/08/07 05:33:42;;;;;;;4.67;4.07;;;;;;;;;;5096526;28;20531;-76
2021/08/07 05:36:09;;;;;;;3.47;3.17;;;;;;;;;;5096251;28;20528;-76
2021/08/07 05:38:36;;;;;;;6.77;3.90;;;;;;;;;;5095985;28;20451;-76
2021/08/07 05:41:03;;;;;;;3.30;3.10;;;;;;;;;;5095696;28;20436;-77
2021/08/07 05:43:32;;;;;;;6.80;3.57;;;;;;;;;;5096444;28;20481;-77
2021/08/07 05:45:59;;;;;;;5.80;3.70;;;;;;;;;;5095913;28;20448;-77
2021/08/07 05:48:26;;;;;;;3.93;3.67;;;;;;;;;;5094995;28;20442;-81
2021/08/07 05:50:53;;;;;;;3.20;3.00;;;;;;;;;;5095288;28;20471;-71
2021/08/07 05:53:20;;;;;;;5.57;3.90;;;;;;;;;;5095764;28;20443;-71
2021/08/07 05:55:48;;;;;;;3.87;3.53;;;;;;;;;;5096196;28;20444;-72
2021/08/07 05:58:15;;;;;;;6.90;3.40;;;;;;;;;;5095894;28;20442;-71
2021/08/07 06:00:43;;;;;;;3.50;3.20;;;;;;;;;;5095595;28;20543;-71
2021/08/07 06:03:10;;;;;;;3.60;3.40;;;;;;;;;;5106391;28;20478;-71
2021/08/07 06:05:38;;;;;;;4.27;3.90;;;;;;;;;;5095186;28;20878;-71
2021/08/07 06:08:05;;;;;;;7.03;5.30;;;;;;;;;;5112222;28;20467;-70
2021/08/07 06:10:33;;;;;;;6.50;5.33;;;;;;;;;;5116095;28;20431;-71
2021/08/07 06:13:00;;;;;;;4.20;3.70;;;;;;;;;;5115951;28;20440;-71
2021/08/07 06:15:27;;;;;;;4.47;3.30;;;;;;;;;;5115905;28;20436;-71
2021/08/07 06:17:57;;;;;;;4.53;3.80;;;;;;;;;;5115661;28;20513;-71
2021/08/07 06:20:24;;;;;;;4.10;3.80;;;;;;;;;;5115867;28;20452;-71
2021/08/07 06:22:51;;;;;;;4.53;3.80;;;;;;;;;;5115235;28;20468;-71
2021/08/07 06:25:19;;;;;;;5.60;3.53;;;;;;;;;;5116520;28;20508;-71
2021/08/07 06:27:51;;;;;;;7.07;3.33;;;;;;;;;;5115721;28;20525;-70
2021/08/07 06:30:19;;;;;;;3.83;3.43;;;;;;;;;;5115426;28;20517;-71
2021/08/07 06:32:46;;;;;;;4.43;3.60;;;;;;;;;;5099789;28;20449;-71
2021/08/07 06:35:14;;;;;;;3.60;3.30;;;;;;;;;;5094742;28;20538;-71
2021/08/07 06:37:42;;;;;;;4.13;3.30;;;;;;;;;;5095129;28;20946;-71
2021/08/07 06:40:10;;;;;;;4.57;3.40;;;;;;;;;;5095167;28;20434;-70
2021/08/07 06:42:42;;;;;;;4.27;3.30;;;;;;;;;;5094702;28;20977;-70
2021/08/07 06:45:10;;;;;;;9.53;4.20;;;;;;;;;;5095062;28;20429;-70
2021/08/07 06:47:38;;;;;;;5.40;3.20;;;;;;;;;;5095055;28;20441;-71
2021/08/07 06:50:06;;;;;;;3.67;3.10;;;;;;;;;;5095217;28;20460;-71
2021/08/07 06:52:35;;;;;;;6.43;3.67;;;;;;;;;;5093513;28;20483;-71
2021/08/07 06:55:02;;;;;;;5.03;3.20;;;;;;;;;;5095084;28;20475;-71
2021/08/07 06:57:29;;;;;;;3.23;2.93;;;;;;;;;;5094422;28;20953;-72
2021/08/07 06:59:56;;;;;;;11.10;4.67;;;;;;;;;;5095499;28;20445;-71
2021/08/07 07:02:23;;;;;;;11.37;5.47;;;;;;;;;;5094603;28;20490;-71
2021/08/07 07:04:51;;;;;;;7.63;3.70;;;;;;;;;;5095331;28;20896;-71
2021/08/07 07:07:18;;;;;;;3.80;3.10;;;;;;;;;;5094293;28;20930;-71
2021/08/07 07:09:46;;;;;;;4.63;2.97;;;;;;;;;;5095348;28;20533;-71
2021/08/07 07:12:15;;;;;;;5.03;2.80;;;;;;;;;;5094599;28;20450;-71
2021/08/07 07:14:42;;;;;;;3.73;3.30;;;;;;;;;;5094134;28;20944;-71
2021/08/07 07:17:09;;;;;;;4.70;2.30;;;;;;;;;;5094610;28;20445;-71
2021/08/07 07:19:37;;;;;;;5.57;2.83;;;;;;;;;;5094376;28;20540;-71
2021/08/07 07:22:04;;;;;;;3.00;2.50;;;;;;;;;;5095035;28;20476;-71
2021/08/07 07:24:31;;;;;;;5.60;2.50;;;;;;;;;;5093902;28;20472;-71
2021/08/07 07:27:01;;;;;;;6.07;2.30;;;;;;;;;;5094248;28;20449;-71
2021/08/07 07:29:28;;;;;;;3.70;3.40;;;;;;;;;;5094193;28;20535;-71
2021/08/07 07:31:55;;;;;;;2.83;2.50;;;;;;;;;;5093882;28;20449;-70
2021/08/07 07:34:22;;;;;;;6.47;2.93;;;;;;;;;;5094341;28;20843;-71
2021/08/07 07:36:50;;;;;;;3.10;2.10;;;;;;;;;;5094314;28;20447;-71
2021/08/07 07:39:17;;;;;;;3.63;2.33;;;;;;;;;;5094048;28;20437;-72
2021/08/07 07:41:44;;;;;;;4.10;2.63;;;;;;;;;;5093972;28;20464;-71
2021/08/07 07:44:12;;;;;;;3.90;2.50;;;;;;;;;;5093839;28;20470;-72
2021/08/07 07:46:40;;;;;;;3.03;2.53;;;;;;;;;;5093611;28;20445;-71
2021/08/07 07:49:07;;;;;;;4.70;2.77;;;;;;;;;;5093571;28;20932;-71
2021/08/07 07:51:34;;;;;;;3.07;2.77;;;;;;;;;;5093779;28;20953;-71
2021/08/07 07:54:01;;;;;;;3.03;2.40;;;;;;;;;;5094291;28;20457;-71
2021/08/07 07:56:28;;;;;;;2.90;2.50;;;;;;;;;;5093729;28;20445;-71
2021/08/07 07:58:55;;;;;;;5.00;3.30;;;;;;;;;;5093369;28;20443;-72
2021/08/07 08:01:24;;;;;;;2.77;2.57;;;;;;;;;;5093746;28;20942;-70
2021/08/07 08:03:51;;;;;;;5.07;2.83;;;;;;;;;;5093054;28;20489;-72
2021/08/07 08:06:18;;;;;;;3.37;3.07;;;;;;;;;;5093593;28;20447;-72
2021/08/07 08:08:46;;;;;;;6.63;3.37;;;;;;;;;;5093271;28;20449;-71
2021/08/07 08:11:19;;;;;;;6.47;3.30;;;;;;;;;;5093018;28;20445;-71
2021/08/07 08:13:46;;;;;;;6.00;3.10;;;;;;;;;;5093721;28;20439;-71
2021/08/07 08:16:13;;;;;;;4.37;2.97;;;;;;;;;;5099844;28;20461;-72
2021/08/07 08:18:42;;;;;;;5.97;3.37;;;;;;;;;;5113233;28;20473;-72
2021/08/07 08:21:09;;;;;;;3.30;2.50;;;;;;;;;;5112881;28;20453;-72
2021/08/07 08:23:36;;;;;;;5.13;3.03;;;;;;;;;;5113433;28;20574;-72
2021/08/07 08:26:04;;;;;;;5.47;2.90;;;;;;;;;;5114009;28;20529;-72
2021/08/07 08:28:31;;;;;;;3.53;2.90;;;;;;;;;;5113756;28;20444;-71
2021/08/07 08:30:58;;;;;;;4.80;2.70;;;;;;;;;;5113872;28;20440;-72
2021/08/07 08:33:26;;;;;;;3.30;2.97;;;;;;;;;;5113287;28;20455;-72
2021/08/07 08:35:55;;;;;;;4.10;2.40;;;;;;;;;;5113048;28;20942;-72
2021/08/07 08:38:22;;;;;;;3.37;2.60;;;;;;;;;;5114233;28;20471;-70
2021/08/07 08:40:49;;;;;;;4.63;2.70;;;;;;;;;;5113440;28;20600;-71
2021/08/07 08:43:17;;;;;;;3.50;3.20;;;;;;;;;;5113542;28;20484;-71
2021/08/07 08:45:45;;;;;;;3.20;2.70;;;;;;;;;;5097771;28;20442;-70
2021/08/07 08:48:13;;;;;;;4.63;2.53;;;;;;;;;;5093280;28;20443;-70
2021/08/07 08:50:40;;;;;;;4.63;2.47;;;;;;;;;;5093406;28;20447;-70
2021/08/07 08:53:09;;;;;;;4.53;2.77;;;;;;;;;;5093172;28;20537;-71
2021/08/07 08:55:37;;;;;;;6.10;2.63;;;;;;;;;;5092842;28;20932;-71
2021/08/07 08:58:04;;;;;;;5.20;2.93;;;;;;;;;;5092610;28;20805;-71
2021/08/07 09:00:31;;;;;;;4.03;2.50;;;;;;;;;;5104181;28;20544;-70
2021/08/07 09:02:59;;;;;;;7.70;2.40;;;;;;;;;;5091518;28;21007;-71
2021/08/07 09:05:26;;;;;;;5.00;2.70;;;;;;;;;;5111325;28;20452;-71
2021/08/07 09:07:53;;;;;;;3.63;2.77;;;;;;;;;;5113652;28;20561;-71
2021/08/07 09:10:24;;;;;;;4.30;2.90;;;;;;;;;;5113162;28;20474;-71
2021/08/07 09:12:52;;;;;;;3.90;2.80;;;;;;;;;;5113467;28;20447;-71
2021/08/07 09:15:26;;;;;;;5.33;3.40;;;;;;;;;;5113761;28;20433;-71
2021/08/07 09:18:12;;;;;;;5.03;2.77;;;;;;;;;;5117167;28;20439;-70
2021/08/07 09:20:40;;;;;;;3.80;3.50;;;;;;;;;;5116721;28;20433;-71
2021/08/07 09:23:07;;;;;;;3.63;3.33;;;;;;;;;;5115815;28;20488;-71
2021/08/07 09:25:37;;;;;;;3.77;3.37;;;;;;;;;;5116772;28;20452;-71
2021/08/07 09:28:04;;;;;;;3.40;3.10;;;;;;;;;;5115369;28;20441;-70
2021/08/07 09:30:33;;;;;;;5.40;3.20;;;;;;;;;;5096242;28;20442;-71
2021/08/07 09:33:01;;;;;;;3.77;3.33;;;;;;;;;;5096074;28;20797;-71
2021/08/07 09:35:30;;;;;;;5.93;3.33;;;;;;;;;;5096874;28;20447;-71
2021/08/07 09:38:04;;;;;;;5.10;2.93;;;;;;;;;;5096066;28;20478;-71
2021/08/07 09:40:40;;;;;;;3.80;3.10;;;;;;;;;;5096398;28;20457;-70
2021/08/07 09:43:08;;;;;;;7.53;3.37;;;;;;;;;;5097077;28;20564;-71
2021/08/07 09:45:35;;;;;;;6.33;3.13;;;;;;;;;;5096795;28;20432;-71
2021/08/07 09:48:03;;;;;;;6.80;3.00;;;;;;;;;;5096173;28;20439;-71
2021/08/07 09:50:31;;;;;;;4.20;2.70;;;;;;;;;;5095792;28;20443;-71
2021/08/07 09:52:59;;;;;;;4.07;2.50;;;;;;;;;;5096001;28;20471;-71
2021/08/07 09:55:27;;;;;;;4.23;2.70;;;;;;;;;;5096972;28;20516;-71
2021/08/07 09:58:05;;;;;;;6.27;3.60;;;;;;;;;;5095846;28;20956;-71
2021/08/07 10:00:36;;;;;;;3.20;2.50;;;;;;;;;;5096523;28;20514;-71
2021/08/07 10:03:26;;;;;;;3.03;2.73;;;;;;;;;;5095507;28;20486;-71
2021/08/07 10:05:53;;;;;;;3.00;2.80;;;;;;;;;;5091758;28;20460;-71
2021/08/07 10:08:21;;;;;;;3.70;3.40;;;;;;;;;;5095733;28;20438;-71
2021/08/07 10:10:49;;;;;;;4.87;3.57;;;;;;;;;;5095678;28;20441;-71
2021/08/07 10:13:19;;;;;;;5.07;4.10;;;;;;;;;;5095624;28;20452;-71
2021/08/07 10:15:46;;;;;;;4.10;3.53;;;;;;;;;;5095643;28;20490;-71
2021/08/07 10:18:23;;;;;;;4.30;3.67;;;;;;;;;;5095633;28;20444;-72
2021/08/07 10:20:51;;;;;;;11.90;8.70;;;;;;;;;;5096279;28;20420;-70
2021/08/07 10:23:18;;;;;;;34.07;24.60;;;;;;;;;;5095114;28;20494;-72
2021/08/07 10:25:46;;;;;;;8.13;5.00;;;;;;;;;;5095618;28;20850;-72
2021/08/07 10:28:14;;;;;;;5.30;4.80;;;;;;;;;;5094905;28;20446;-71
2021/08/07 10:30:44;;;;;;;8.17;5.33;;;;;;;;;;5094795;28;20497;-71
2021/08/07 10:33:12;;;;;;;8.23;4.40;;;;;;;;;;5095321;28;20522;-71
2021/08/07 10:35:40;;;;;;;6.23;4.07;;;;;;;;;;5094985;28;20934;-71
2021/08/07 10:38:07;;;;;;;4.40;3.43;;;;;;;;;;5095874;28;20466;-72
2021/08/07 10:40:34;;;;;;;4.73;4.00;;;;;;;;;;5094864;28;20443;-72
2021/08/07 10:43:01;;;;;;;5.07;3.53;;;;;;;;;;5095076;28;20796;-72
2021/08/07 10:45:29;;;;;;;8.77;4.10;;;;;;;;;;5095086;28;20437;-72
2021/08/07 10:47:57;;;;;;;5.43;2.87;;;;;;;;;;5094980;28;20439;-69
2021/08/07 10:50:39;;;;;;;5.83;2.70;;;;;;;;;;5094649;28;20542;-71
2021/08/07 10:53:29;;;;;;;6.30;2.70;;;;;;;;;;5095015;28;20440;-70
2021/08/07 10:55:57;;;;;;;5.20;2.83;;;;;;;;;;5094789;28;20439;-71
2021/08/07 10:58:49;;;;;;;4.23;3.80;;;;;;;;;;5094446;28;20530;-69
2021/08/07 11:01:30;;;;;;;6.60;3.67;;;;;;;;;;5079908;28;20475;-72
2021/08/07 11:04:07;;;;;;;10.93;3.33;;;;;;;;;;5094891;28;20821;-72
2021/08/07 11:06:47;;;;;;;5.03;2.87;;;;;;;;;;5094925;28;20463;-74
2021/08/07 11:09:17;;;;;;;5.83;3.67;;;;;;;;;;5094661;28;20431;-72
2021/08/07 11:11:45;;;;;;;3.50;2.40;;;;;;;;;;5094878;28;20470;-72
2021/08/07 11:14:46;;;;;;;3.83;2.83;;;;;;;;;;5094134;28;20535;-72
2021/08/07 11:17:34;;;;;;;4.43;2.60;;;;;;;;;;5032016;28;20434;-72
2021/08/07 11:20:05;;;;;;;2.83;2.63;;;;;;;;;;5032076;28;20530;-72
2021/08/07 11:22:50;;;;;;;2.90;2.30;;;;;;;;;;5070042;28;20451;-72
2021/08/07 11:25:19;;;;;;;6.40;2.97;;;;;;;;;;5074327;28;20488;-72
2021/08/07 11:28:06;;;;;;;6.43;2.53;;;;;;;;;;5074845;28;20494;-72
2021/08/07 11:30:34;;;;;;;4.20;2.43;;;;;;;;;;5073608;28;20459;-72
2021/08/07 11:33:21;;;;;;;2.07;1.87;;;;;;;;;;5074208;28;20461;-67
2021/08/07 11:36:07;;;;;;;5.50;2.33;;;;;;;;;;5073521;28;20444;-72
2021/08/07 11:38:34;;;;;;;8.33;2.77;;;;;;;;;;5073894;28;20429;-72
2021/08/07 11:41:02;;;;;;;4.30;1.97;;;;;;;;;;5073523;28;20788;-72
2021/08/07 11:43:30;;;;;;;4.10;2.37;;;;;;;;;;5074134;28;20482;-72
2021/08/07 11:46:05;;;;;;;2.60;2.00;;;;;;;;;;5073638;28;20529;-72
2021/08/07 11:48:33;;;;;;;4.03;2.13;;;;;;;;;;5073644;28;20445;-73
2021/08/07 11:51:02;;;;;;;6.40;2.23;;;;;;;;;;5073406;28;20532;-73
2021/08/07 11:53:31;;;;;;;4.90;2.27;;;;;;;;;;5073317;28;20484;-72
2021/08/07 11:55:58;;;;;;;5.83;2.40;;;;;;;;;;5073649;28;20442;-74
2021/08/07 11:58:25;;;;;;;4.57;2.07;;;;;;;;;;5073476;28;20442;-75
2021/08/07 12:00:58;;;;;;;3.83;2.20;;;;;;;;;;5073430;28;20438;-73
2021/08/07 12:03:25;;;;;;;3.17;2.13;;;;;;;;;;5072983;28;20429;-72
2021/08/07 12:05:53;;;;;;;7.07;2.70;;;;;;;;;;5073352;28;20526;-69
2021/08/07 12:08:21;;;;;;;3.00;2.00;;;;;;;;;;5073295;28;20956;-72
2021/08/07 12:10:51;;;;;;;3.83;2.47;;;;;;;;;;5074529;28;20542;-69
2021/08/07 12:13:23;;;;;;;7.00;2.50;;;;;;;;;;5084059;28;20453;-69
2021/08/07 12:15:54;;;;;;;4.27;2.50;;;;;;;;;;5092382;28;20916;-73
2021/08/07 12:18:21;;;;;;;9.27;6.53;;;;;;;;;;5093066;28;20453;-75
2021/08/07 12:20:48;;;;;;;7.10;2.60;;;;;;;;;;5093351;28;20443;-76
2021/08/07 12:23:16;;;;;;;2.20;1.87;;;;;;;;;;5098150;28;20471;-74
2021/08/07 12:25:43;;;;;;;2.70;2.00;;;;;;;;;;5113573;28;20484;-71
2021/08/07 12:28:14;;;;;;;3.10;2.13;;;;;;;;;;5113492;28;20436;-73
2021/08/07 12:31:01;;;;;;;6.73;2.80;;;;;;;;;;5113174;28;20455;-72
2021/08/07 12:33:28;;;;;;;3.97;2.20;;;;;;;;;;5113621;28;20433;-73
2021/08/07 12:35:56;;;;;;;5.50;2.13;;;;;;;;;;5113140;28;20543;-73
2021/08/07 12:38:24;;;;;;;1.70;1.60;;;;;;;;;;5113549;28;20441;-70
2021/08/07 12:40:52;;;;;;;2.30;1.97;;;;;;;;;;5107379;28;20535;-70
2021/08/07 12:43:22;;;;;;;6.13;2.07;;;;;;;;;;5092466;28;20436;-71
2021/08/07 12:46:00;;;;;;;3.00;1.80;;;;;;;;;;5092714;28;20969;-72
2021/08/07 12:48:27;;;;;;;2.50;2.10;;;;;;;;;;5092957;28;20446;-72
2021/08/07 12:51:01;;;;;;;4.23;1.97;;;;;;;;;;5094273;28;20434;-72
2021/08/07 12:53:43;;;;;;;1.90;1.80;;;;;;;;;;5097287;28;20450;-72
2021/08/07 12:56:10;;;;;;;4.40;2.20;;;;;;;;;;5097001;28;20516;-72
2021/08/07 12:58:39;;;;;;;2.57;1.90;;;;;;;;;;5096684;28;20516;-70
2021/08/07 13:01:12;;;;;;;2.80;2.60;;;;;;;;;;5097104;28;20471;-71
2021/08/07 13:03:54;;;;;;;3.70;1.80;;;;;;;;;;5096450;28;20437;-71
2021/08/07 13:06:21;;;;;;;3.00;2.10;;;;;;;;;;5097177;28;20437;-75
2021/08/07 13:08:48;;;;;;;2.10;1.90;;;;;;;;;;5096657;28;20434;-74
2021/08/07 13:11:16;;;;;;;3.60;2.00;;;;;;;;;;5096251;28;20563;-73
2021/08/07 13:13:45;;;;;;;4.53;2.00;;;;;;;;;;5095867;28;20454;-72
2021/08/07 13:16:13;;;;;;;3.97;2.23;;;;;;;;;;5096389;28;20436;-73
2021/08/07 13:18:40;;;;;;;8.93;4.07;;;;;;;;;;5096547;28;20462;-74
2021/08/07 13:21:22;;;;;;;8.37;3.80;;;;;;;;;;5096478;28;20443;-75
2021/08/07 13:23:50;;;;;;;4.50;2.70;;;;;;;;;;5095931;28;20570;-75
2021/08/07 13:26:17;;;;;;;6.40;2.90;;;;;;;;;;5096870;28;20488;-74
2021/08/07 13:28:52;;;;;;;8.87;4.70;;;;;;;;;;5096165;28;20438;-74
2021/08/07 13:31:30;;;;;;;4.30;3.03;;;;;;;;;;5096215;28;20966;-74
2021/08/07 13:33:57;;;;;;;7.33;3.77;;;;;;;;;;5097011;28;20765;-74
2021/08/07 13:36:24;;;;;;;12.00;4.37;;;;;;;;;;5096417;28;20709;-74
2021/08/07 13:38:51;;;;;;;5.30;3.87;;;;;;;;;;5096217;28;20445;-75
2021/08/07 13:41:18;;;;;;;5.60;4.00;;;;;;;;;;5096331;28;20483;-74
2021/08/07 13:43:46;;;;;;;7.13;3.07;;;;;;;;;;5095986;28;20852;-74
2021/08/07 13:46:14;;;;;;;7.80;3.60;;;;;;;;;;5095917;28;20525;-74
2021/08/07 13:48:41;;;;;;;7.87;4.07;;;;;;;;;;5096116;28;20447;-74
2021/08/07 13:51:09;;;;;;;6.13;2.70;;;;;;;;;;5096199;28;20431;-74
2021/08/07 13:53:36;;;;;;;4.37;3.20;;;;;;;;;;5096288;28;20470;-74
2021/08/07 13:56:03;;;;;;;4.40;3.77;;;;;;;;;;5096132;28;20453;-74
2021/08/07 13:58:30;;;;;;;4.83;3.10;;;;;;;;;;5095966;28;20435;-74
2021/08/07 14:00:57;;;;;;;6.03;3.97;;;;;;;;;;5096029;28;20814;-74
2021/08/07 14:03:26;;;;;;;5.40;3.00;;;;;;;;;;5096071;28;20451;-74
2021/08/07 14:05:54;;;;;;;4.90;2.90;;;;;;;;;;5096197;28;20651;-74
2021/08/07 14:08:21;;;;;;;4.43;2.77;;;;;;;;;;5095609;28;20505;-73
2021/08/07 14:10:48;;;;;;;4.93;3.17;;;;;;;;;;5096101;28;20519;-73
2021/08/07 14:13:15;;;;;;;5.37;2.73;;;;;;;;;;5095543;28;20443;-73
2021/08/07 14:15:42;;;;;;;11.00;2.70;;;;;;;;;;5095223;28;20944;-73
2021/08/07 14:18:11;;;;;;;5.17;2.60;;;;;;;;;;5095921;28;20477;-75
2021/08/07 14:20:39;;;;;;;4.53;2.27;;;;;;;;;;5095250;28;20520;-73
2021/08/07 14:23:08;;;;;;;4.20;2.40;;;;;;;;;;5094847;28;20479;-72
2021/08/07 14:25:35;;;;;;;3.90;2.30;;;;;;;;;;5095340;28;20469;-73
2021/08/07 14:28:03;;;;;;;5.30;2.60;;;;;;;;;;5095008;28;20480;-73
2021/08/07 14:30:30;;;;;;;7.17;2.23;;;;;;;;;;5094886;28;20447;-73
2021/08/07 14:32:57;;;;;;;2.73;1.83;;;;;;;;;;5095490;28;20445;-74
2021/08/07 14:35:24;;;;;;;2.73;2.00;;;;;;;;;;5094850;28;20542;-73
2021/08/07 14:37:53;;;;;;;3.37;2.20;;;;;;;;;;5094874;28;20965;-74
2021/08/07 14:40:20;;;;;;;6.00;2.57;;;;;;;;;;5095113;28;20499;-73
2021/08/07 14:42:47;;;;;;;3.87;1.93;;;;;;;;;;5095091;28;20450;-73
2021/08/07 14:45:15;;;;;;;2.07;1.90;;;;;;;;;;5094621;28;20469;-73
2021/08/07 14:47:42;;;;;;;3.67;1.90;;;;;;;;;;5095020;28;20445;-73
2021/08/07 14:50:10;;;;;;;4.50;2.07;;;;;;;;;;5095029;28;20525;-73
2021/08/07 14:52:37;;;;;;;4.47;2.00;;;;;;;;;;5094926;28;20410;-73